Airport View

Enter AWOS ICAO identifier for current METAR.

ex. KFNL

KDUG 191756Z AUTO 00000KT 10SM CLR 30/M01 A3011 RMK AO2 SLP119 T03001006 10300 20122 56005

19 Jun 2019 18:48

Frequency: 119.275

Phone: 520-364-7208

Other Area AWOS: KFHU - KOLS - KLSB - KDMA

TAF KDUG 191726Z 1918/2018 21008KT P6SM SKC FM191900 23012G18KT P6SM SKC FM200200 27009KT P6SM SKC FM200700 VRB04KT P6SM SKC